Time;durP1;ratioP1;P1;durP2;ratioP2;P2;SDS_P1;SDS_P2;PMS_P1;PMS_P2;Temp;Humidity;BMP_temperature;BMP_pressure;BME280_temperature;BME280_humidity;BME280_pressure;Samples;Min_cycle;Max_cycle;Signal;HPM_P1;HPM_P2
2022/06/13 00:00:59;;;;;;;20.13;6.40;;;13.90;99.90;;;;;;5085644;28;20040;-67
2022/06/13 00:03:24;;;;;;;19.60;6.03;;;13.90;99.90;;;;;;5082945;28;20048;-67
2022/06/13 00:05:50;;;;;;;21.08;6.35;;;13.90;99.90;;;;;;5082265;28;20044;-68
2022/06/13 00:08:16;;;;;;;16.48;5.70;;;13.80;99.90;;;;;;5081862;28;20048;-68
2022/06/13 00:10:41;;;;;;;18.10;5.65;;;13.80;99.90;;;;;;5082794;28;20130;-68
2022/06/13 00:13:07;;;;;;;17.83;5.30;;;13.80;99.90;;;;;;5085608;28;20046;-68
2022/06/13 00:15:33;;;;;;;14.55;5.18;;;13.80;99.90;;;;;;5076319;28;20040;-68
2022/06/13 00:17:59;;;;;;;20.20;6.00;;;13.80;99.90;;;;;;5082876;28;20044;-68
2022/06/13 00:20:25;;;;;;;17.52;5.65;;;13.80;99.90;;;;;;5075480;28;20094;-68
2022/06/13 00:22:50;;;;;;;16.90;6.10;;;13.70;99.90;;;;;;5079085;28;20047;-69
2022/06/13 00:25:16;;;;;;;15.68;5.03;;;13.70;99.90;;;;;;5085975;28;20644;-68
2022/06/13 00:27:43;;;;;;;20.63;6.05;;;13.70;99.90;;;;;;5070192;28;20058;-68
2022/06/13 00:30:10;;;;;;;19.77;5.72;;;13.70;99.90;;;;;;5085068;28;20443;-67
2022/06/13 00:32:36;;;;;;;15.80;5.47;;;13.70;99.90;;;;;;5102314;28;20085;-68
2022/06/13 00:35:02;;;;;;;14.10;5.60;;;13.70;99.90;;;;;;5084715;28;20043;-67
2022/06/13 00:37:28;;;;;;;14.82;5.15;;;13.60;99.90;;;;;;5080339;28;20051;-68
2022/06/13 00:39:53;;;;;;;16.20;5.50;;;13.60;99.90;;;;;;5078447;28;20047;-68
2022/06/13 00:42:22;;;;;;;10.65;4.70;;;13.60;99.90;;;;;;5084617;28;20482;-68
2022/06/13 00:45:08;;;;;;;17.23;5.28;;;13.60;99.90;;;;;;5083181;28;20472;-68
2022/06/13 00:47:35;;;;;;;13.57;5.72;;;13.60;99.90;;;;;;5084890;28;20040;-68
2022/06/13 00:50:04;;;;;;;16.47;5.63;;;13.60;99.90;;;;;;5076329;28;20093;-68
2022/06/13 00:52:45;;;;;;;13.48;5.25;;;13.60;99.90;;;;;;5074047;28;20066;-68
2022/06/13 00:55:14;;;;;;;14.18;5.80;;;13.60;99.90;;;;;;5078874;28;20048;-68
2022/06/13 00:57:40;;;;;;;14.52;5.38;;;13.60;99.90;;;;;;5084059;28;20550;-68
2022/06/13 01:00:11;;;;;;;18.00;5.93;;;13.60;99.90;;;;;;5078268;28;20474;-67
2022/06/13 01:02:41;;;;;;;19.88;5.53;;;13.60;99.90;;;;;;5080410;28;20121;-68
2022/06/13 01:05:08;;;;;;;15.73;6.00;;;13.70;99.90;;;;;;5081948;28;20048;-68
2022/06/13 01:07:35;;;;;;;13.93;5.45;;;13.60;99.90;;;;;;5079684;28;20044;-67
2022/06/13 01:12:47;;;;;;;14.35;5.72;;;13.60;99.90;;;;;;5077334;28;20056;-68
2022/06/13 01:15:30;;;;;;;17.20;5.75;;;13.70;99.90;;;;;;5083497;28;20067;-68
2022/06/13 01:18:05;;;;;;;19.50;6.53;;;13.60;99.90;;;;;;5079557;28;20051;-68
2022/06/13 01:21:01;;;;;;;21.83;6.28;;;13.60;99.90;;;;;;5093670;28;20052;-68
2022/06/13 01:23:35;;;;;;;17.27;6.18;;;13.60;99.90;;;;;;5076298;28;20413;-68
2022/06/13 01:26:14;;;;;;;14.90;5.90;;;13.60;99.90;;;;;;5078309;28;20044;-68
2022/06/13 01:28:49;;;;;;;16.98;5.82;;;13.50;99.90;;;;;;5083469;28;20119;-68
2022/06/13 01:31:21;;;;;;;17.90;5.97;;;13.60;99.90;;;;;;5081036;28;20056;-68
2022/06/13 01:34:15;;;;;;;13.73;5.47;;;13.60;99.90;;;;;;5080001;28;20375;-68
2022/06/13 01:36:47;;;;;;;16.02;6.32;;;13.60;99.90;;;;;;5075317;28;20055;-68
2022/06/13 01:39:57;;;;;;;16.90;5.80;;;13.60;99.90;;;;;;5078096;28;20043;-68
2022/06/13 01:42:43;;;;;;;20.23;6.43;;;13.60;99.90;;;;;;5077102;28;20464;-68
2022/06/13 01:45:27;;;;;;;20.70;6.28;;;13.70;99.90;;;;;;5082847;28;20302;-68
2022/06/13 01:48:02;;;;;;;19.38;6.05;;;13.70;99.90;;;;;;5096736;28;20044;-68
2022/06/13 01:50:41;;;;;;;17.42;6.10;;;13.70;99.90;;;;;;5084776;28;20144;-68
2022/06/13 01:53:13;;;;;;;21.38;6.70;;;13.70;99.90;;;;;;5094123;28;20085;-68
2022/06/13 01:55:38;;;;;;;22.27;6.63;;;13.80;99.90;;;;;;5080642;28;20040;-68
2022/06/13 01:58:17;;;;;;;20.25;6.25;;;13.70;99.90;;;;;;5083101;28;20066;-68
2022/06/13 02:00:55;;;;;;;20.40;6.75;;;13.80;99.90;;;;;;5074847;28;20148;-68
2022/06/13 02:03:27;;;;;;;25.20;6.90;;;13.80;99.90;;;;;;5071386;28;20488;-68
2022/06/13 02:06:12;;;;;;;20.48;6.68;;;13.80;99.90;;;;;;5081174;28;21031;-68
2022/06/13 02:08:44;;;;;;;16.60;6.47;;;13.80;99.90;;;;;;5082021;28;20433;-68
2022/06/13 02:11:32;;;;;;;17.40;6.32;;;13.80;99.90;;;;;;5080076;28;20056;-67
2022/06/13 02:14:12;;;;;;;18.63;6.35;;;13.80;99.90;;;;;;5089381;28;20134;-68
2022/06/13 02:16:51;;;;;;;16.65;6.20;;;13.80;99.90;;;;;;5090942;28;20047;-67
2022/06/13 02:19:24;;;;;;;16.98;6.57;;;13.80;99.90;;;;;;5082962;28;20048;-67
2022/06/13 02:21:59;;;;;;;18.85;6.47;;;13.80;99.90;;;;;;5083721;28;20213;-67
2022/06/13 02:24:31;;;;;;;19.80;6.35;;;13.90;99.90;;;;;;5085943;28;20044;-67
2022/06/13 02:26:59;;;;;;;16.40;6.13;;;13.80;99.90;;;;;;5083484;28;20075;-67
2022/06/13 02:29:29;;;;;;;17.33;6.55;;;13.80;99.90;;;;;;5080573;28;20373;-68
2022/06/13 02:32:09;;;;;;;17.33;6.22;;;13.90;99.90;;;;;;5085232;28;20138;-68
2022/06/13 02:34:40;;;;;;;14.88;6.10;;;13.80;99.90;;;;;;5081007;28;20736;-68
2022/06/13 02:37:19;;;;;;;18.73;6.38;;;13.80;99.90;;;;;;5087340;28;20040;-68
2022/06/13 02:40:17;;;;;;;18.98;6.28;;;13.80;99.90;;;;;;5085182;28;20051;-68
2022/06/13 02:43:00;;;;;;;16.50;5.88;;;13.80;99.90;;;;;;5072195;28;20132;-68
2022/06/13 02:45:38;;;;;;;23.90;6.22;;;13.80;99.90;;;;;;5081525;28;20036;-69
2022/06/13 02:48:20;;;;;;;20.25;5.63;;;13.80;99.90;;;;;;5081353;28;20047;-67
2022/06/13 02:51:17;;;;;;;16.25;5.47;;;13.80;99.90;;;;;;5086503;28;20379;-67
2022/06/13 02:54:08;;;;;;;19.05;6.15;;;13.80;99.90;;;;;;5091534;28;20084;-68
2022/06/13 02:57:23;;;;;;;15.90;5.88;;;13.80;99.90;;;;;;5082911;28;20137;-68
2022/06/13 02:59:48;;;;;;;15.23;5.55;;;13.80;99.90;;;;;;5080495;28;20056;-67
2022/06/13 03:02:19;;;;;;;19.30;6.50;;;13.80;99.90;;;;;;5078790;28;20048;-68
2022/06/13 03:04:56;;;;;;;16.25;6.22;;;13.80;99.90;;;;;;5079109;28;20578;-68
2022/06/13 03:07:38;;;;;;;16.48;5.07;;;13.80;99.90;;;;;;5078214;28;20539;-67
2022/06/13 03:10:18;;;;;;;13.98;5.35;;;13.80;99.90;;;;;;5084035;28;20078;-69
2022/06/13 03:13:05;;;;;;;18.58;6.43;;;13.80;99.90;;;;;;5083530;28;20052;-68
2022/06/13 03:15:44;;;;;;;20.52;6.07;;;13.80;99.90;;;;;;5086170;28;20051;-67
2022/06/13 03:18:26;;;;;;;14.90;6.00;;;13.80;99.90;;;;;;5081496;28;20052;-68
2022/06/13 03:21:03;;;;;;;17.33;5.82;;;13.70;99.90;;;;;;5079868;28;20040;-67
2022/06/13 03:23:32;;;;;;;14.18;5.45;;;13.80;99.90;;;;;;5073207;28;20677;-67
2022/06/13 03:26:05;;;;;;;17.63;6.35;;;13.80;99.90;;;;;;5061957;28;20044;-68
2022/06/13 03:28:40;;;;;;;19.77;6.57;;;13.80;99.90;;;;;;5077451;28;20036;-68
2022/06/13 03:31:29;;;;;;;23.23;5.60;;;13.80;99.90;;;;;;5092322;28;20044;-68
2022/06/13 03:34:00;;;;;;;17.85;5.05;;;13.70;99.90;;;;;;5076404;28;20054;-68
2022/06/13 03:36:40;;;;;;;17.40;6.30;;;13.70;99.90;;;;;;5083581;28;20372;-68
2022/06/13 03:39:17;;;;;;;15.23;5.00;;;13.70;99.90;;;;;;5083043;28;20455;-68
2022/06/13 03:41:50;;;;;;;21.38;5.10;;;13.70;99.90;;;;;;5083403;28;20048;-68
2022/06/13 03:44:40;;;;;;;17.27;5.32;;;13.70;99.90;;;;;;5076809;28;20051;-67
2022/06/13 03:47:15;;;;;;;15.27;4.63;;;13.70;99.90;;;;;;5079976;28;20373;-68
2022/06/13 03:49:56;;;;;;;13.73;4.60;;;13.70;99.90;;;;;;5086527;28;20159;-68
2022/06/13 03:52:29;;;;;;;14.10;5.28;;;13.70;99.90;;;;;;5080973;28;20037;-67
2022/06/13 03:55:12;;;;;;;18.52;4.93;;;13.70;99.90;;;;;;5080170;28;20051;-68
2022/06/13 03:57:50;;;;;;;13.18;4.68;;;13.70;99.90;;;;;;5080924;28;20044;-67
2022/06/13 04:00:25;;;;;;;13.63;4.30;;;13.70;99.90;;;;;;5078392;28;20412;-68
2022/06/13 04:02:53;;;;;;;16.58;4.85;;;13.70;99.90;;;;;;5076884;28;20572;-68
2022/06/13 04:05:31;;;;;;;13.23;4.43;;;13.70;99.90;;;;;;5079065;28;20043;-68
2022/06/13 04:08:00;;;;;;;13.50;4.20;;;13.80;99.90;;;;;;5081485;28;20146;-68
2022/06/13 04:10:27;;;;;;;21.83;5.28;;;13.80;99.90;;;;;;5084615;28;20451;-68
2022/06/13 04:13:11;;;;;;;15.23;4.53;;;13.80;99.90;;;;;;5085129;28;20048;-68
2022/06/13 04:15:56;;;;;;;14.05;4.93;;;13.90;99.90;;;;;;5081149;28;20642;-68
2022/06/13 04:18:30;;;;;;;15.52;4.72;;;13.90;99.90;;;;;;5067637;28;20354;-68
2022/06/13 04:21:21;;;;;;;13.50;4.82;;;13.90;99.90;;;;;;5083360;28;20418;-68
2022/06/13 04:24:11;;;;;;;14.50;4.75;;;13.90;99.90;;;;;;5080019;28;20044;-68
2022/06/13 04:26:46;;;;;;;19.50;5.15;;;14.00;99.90;;;;;;5100107;28;20048;-68
2022/06/13 04:29:36;;;;;;;17.55;5.45;;;14.00;99.90;;;;;;5084999;28;20048;-68
2022/06/13 04:32:07;;;;;;;21.38;5.65;;;14.00;99.90;;;;;;5080558;28;20040;-68
2022/06/13 04:34:41;;;;;;;14.75;4.57;;;14.00;99.90;;;;;;5076504;28;20090;-70
2022/06/13 04:37:08;;;;;;;15.73;4.75;;;14.00;99.90;;;;;;5067451;28;20044;-67
2022/06/13 04:39:36;;;;;;;15.00;4.72;;;14.00;99.90;;;;;;5075879;28;20453;-68
2022/06/13 04:42:04;;;;;;;16.58;4.80;;;14.00;99.90;;;;;;5081017;28;20055;-67
2022/06/13 04:44:32;;;;;;;;;;;14.00;99.90;;;;;;5081894;28;20138;-67
2022/06/13 04:46:59;;;;;;;13.65;4.45;;;14.10;99.90;;;;;;5085368;28;19939;-68
2022/06/13 04:49:32;;;;;;;12.13;3.63;;;14.10;99.90;;;;;;5085348;28;20075;-67
2022/06/13 04:51:59;;;;;;;9.63;3.45;;;14.10;99.90;;;;;;5080417;28;20059;-67
2022/06/13 04:54:25;;;;;;;12.75;4.60;;;14.10;99.90;;;;;;5083871;28;20410;-67
2022/06/13 04:56:53;;;;;;;11.77;3.22;;;14.20;99.90;;;;;;5082796;28;20044;-67
2022/06/13 04:59:18;;;;;;;17.25;3.90;;;14.20;99.90;;;;;;5082252;28;20047;-67
2022/06/13 05:01:47;;;;;;;10.82;3.08;;;14.30;99.90;;;;;;5082313;28;20060;-68
2022/06/13 05:04:19;;;;;;;8.57;2.90;;;14.30;99.90;;;;;;5084755;28;20044;-66
2022/06/13 05:06:51;;;;;;;12.38;3.72;;;14.30;99.90;;;;;;5077787;28;20055;-67
2022/06/13 05:09:27;;;;;;;10.15;3.42;;;14.30;99.90;;;;;;5070584;28;20112;-68
2022/06/13 05:12:18;;;;;;;11.27;3.92;;;14.30;99.90;;;;;;5082285;28;20504;-67
2022/06/13 05:15:02;;;;;;;10.05;3.42;;;14.30;99.90;;;;;;5082669;28;20506;-67
2022/06/13 05:17:50;;;;;;;7.82;2.95;;;14.30;99.90;;;;;;5070070;28;20568;-67
2022/06/13 05:20:27;;;;;;;11.80;3.03;;;14.20;99.90;;;;;;5076811;28;20050;-68
2022/06/13 05:23:04;;;;;;;7.80;3.35;;;14.20;99.90;;;;;;5072862;28;20047;-67
2022/06/13 05:25:44;;;;;;;8.35;3.20;;;14.20;99.90;;;;;;5078677;28;20531;-67
2022/06/13 05:28:12;;;;;;;10.00;3.00;;;14.10;99.90;;;;;;5077887;28;20047;-68
2022/06/13 05:30:43;;;;;;;8.75;2.53;;;14.10;99.90;;;;;;5082713;28;20040;-67
2022/06/13 05:33:13;;;;;;;6.78;2.33;;;14.20;99.90;;;;;;5079953;28;20040;-67
2022/06/13 05:35:43;;;;;;;10.40;3.13;;;14.20;99.90;;;;;;5079989;28;20064;-65
2022/06/13 05:38:16;;;;;;;6.72;2.38;;;14.30;99.90;;;;;;5083214;28;20076;-66
2022/06/13 05:40:43;;;;;;;6.60;1.90;;;14.40;99.90;;;;;;5084649;28;20135;-65
2022/06/13 05:43:10;;;;;;;10.45;2.15;;;14.40;99.90;;;;;;5087951;28;20044;-65
2022/06/13 05:45:38;;;;;;;10.95;2.20;;;14.50;99.90;;;;;;5080019;28;20063;-67
2022/06/13 05:48:05;;;;;;;10.82;2.50;;;14.70;99.90;;;;;;5088613;28;20051;-67
2022/06/13 05:50:32;;;;;;;4.88;1.70;;;14.80;99.90;;;;;;5090424;28;20362;-67
2022/06/13 05:52:58;;;;;;;5.88;2.13;;;14.90;99.90;;;;;;5090563;28;20052;-66
2022/06/13 05:55:24;;;;;;;8.55;1.98;;;14.90;99.90;;;;;;5091082;28;20588;-67
2022/06/13 05:57:49;;;;;;;6.20;1.65;;;14.90;99.90;;;;;;5092912;28;20035;-67
2022/06/13 06:00:19;;;;;;;5.68;1.88;;;14.90;99.90;;;;;;5086725;28;20131;-65
2022/06/13 06:02:45;;;;;;;6.70;1.98;;;14.90;99.90;;;;;;5086757;28;20056;-66
2022/06/13 06:05:11;;;;;;;8.27;1.70;;;14.80;99.90;;;;;;5089828;28;20032;-67
2022/06/13 06:07:37;;;;;;;8.35;2.05;;;14.80;99.90;;;;;;5087291;28;20371;-66
2022/06/13 06:10:03;;;;;;;9.85;1.80;;;14.80;99.90;;;;;;5093885;28;20262;-67
2022/06/13 06:12:29;;;;;;;8.35;2.15;;;14.90;99.90;;;;;;5083286;28;20048;-66
2022/06/13 06:14:54;;;;;;;6.45;1.73;;;15.30;99.90;;;;;;5092158;28;20044;-65
2022/06/13 06:17:20;;;;;;;8.27;2.10;;;15.60;99.90;;;;;;5088433;28;20032;-67
2022/06/13 06:19:46;;;;;;;9.85;1.90;;;15.70;99.90;;;;;;5090883;28;20105;-67
2022/06/13 06:22:12;;;;;;;10.48;1.80;;;15.70;99.90;;;;;;5091091;28;20035;-66
2022/06/13 06:24:38;;;;;;;7.22;2.28;;;15.80;99.90;;;;;;5085175;28;20056;-67
2022/06/13 06:27:04;;;;;;;10.52;1.88;;;15.70;99.90;;;;;;5094399;28;20032;-67
2022/06/13 06:29:29;;;;;;;10.02;2.25;;;15.50;99.90;;;;;;5092337;28;20055;-67
2022/06/13 06:31:55;;;;;;;10.32;2.30;;;15.40;99.90;;;;;;5089954;28;20051;-66
2022/06/13 06:34:21;;;;;;;7.88;2.20;;;15.20;99.90;;;;;;5090458;28;20052;-65
2022/06/13 06:36:46;;;;;;;9.20;1.70;;;15.00;99.90;;;;;;5087165;28;20044;-66
2022/06/13 06:39:12;;;;;;;7.95;1.70;;;14.90;99.90;;;;;;5089742;28;20504;-67
2022/06/13 06:41:38;;;;;;;5.20;2.00;;;14.90;99.90;;;;;;5093875;28;20127;-67
2022/06/13 06:44:03;;;;;;;9.73;2.20;;;14.90;99.90;;;;;;5089846;28;20040;-68
2022/06/13 06:46:29;;;;;;;10.25;2.65;;;15.00;99.90;;;;;;5089933;28;20093;-66
2022/06/13 06:48:55;;;;;;;9.82;2.10;;;15.20;99.90;;;;;;5077137;28;20032;-68
2022/06/13 06:51:21;;;;;;;17.92;2.50;;;15.30;99.90;;;;;;5089598;28;20037;-68
2022/06/13 07:02:00;;;;;;;6.75;2.17;;;15.20;99.90;;;;;;5089122;28;21776;-65
2022/06/13 07:04:27;;;;;;;7.78;2.30;;;15.10;99.90;;;;;;5086298;28;20119;-67
2022/06/13 07:06:52;;;;;;;10.60;2.63;;;15.00;99.90;;;;;;5091462;28;20040;-67
2022/06/13 07:09:18;;;;;;;11.20;2.55;;;14.90;99.90;;;;;;5092917;28;20035;-66
2022/06/13 07:11:56;;;;;;;8.20;2.20;;;14.80;99.90;;;;;;5089070;28;20051;-67
2022/06/13 07:14:27;;;;;;;9.43;2.03;;;14.80;99.90;;;;;;5090136;28;20044;-65
2022/06/13 07:16:52;;;;;;;13.35;2.45;;;14.90;99.90;;;;;;5084386;28;20056;-66
2022/06/13 07:19:19;;;;;;;7.70;2.22;;;15.00;99.90;;;;;;5085941;28;20031;-67
2022/06/13 07:21:44;;;;;;;8.68;2.30;;;15.00;99.90;;;;;;5088522;28;20044;-67
2022/06/13 07:24:10;;;;;;;8.70;2.40;;;15.10;99.90;;;;;;5092269;28;20032;-66
2022/06/13 07:26:37;;;;;;;11.13;2.22;;;15.10;99.90;;;;;;5085979;28;20059;-68
2022/06/13 07:29:04;;;;;;;13.25;2.33;;;15.20;99.90;;;;;;5089738;28;20047;-66
2022/06/13 07:31:36;;;;;;;10.88;2.10;;;15.30;99.90;;;;;;5104481;28;20339;-68
2022/06/13 07:34:07;;;;;;;8.30;2.13;;;15.40;99.90;;;;;;5083943;28;20544;-67
2022/06/13 07:36:33;;;;;;;;;;;15.50;99.90;;;;;;5090745;28;20036;-66
2022/06/13 07:38:58;;;;;;;9.82;2.17;;;15.50;99.90;;;;;;5091843;28;20065;-67
2022/06/13 07:41:25;;;;;;;10.70;1.95;;;15.40;99.90;;;;;;5092148;28;20043;-67
2022/06/13 07:43:53;;;;;;;13.55;2.35;;;15.40;99.90;;;;;;5089740;28;20051;-68
2022/06/13 07:46:23;;;;;;;12.35;1.95;;;15.50;99.90;;;;;;5089751;28;20099;-67
2022/06/13 07:48:49;;;;;;;10.18;1.95;;;15.50;99.90;;;;;;5089002;28;20109;-66
2022/06/13 07:51:15;;;;;;;12.23;1.85;;;15.70;99.90;;;;;;5091472;28;20148;-66
2022/06/13 07:53:41;;;;;;;9.52;2.40;;;15.80;99.90;;;;;;5090786;28;20073;-67
2022/06/13 07:56:09;;;;;;;6.40;1.70;;;16.00;99.90;;;;;;5085925;28;20410;-68
2022/06/13 07:58:37;;;;;;;9.30;2.08;;;16.10;99.90;;;;;;5086217;28;20048;-67
2022/06/13 08:01:06;;;;;;;3.90;1.23;;;16.20;99.90;;;;;;5089299;28;20047;-67
2022/06/13 08:03:35;;;;;;;8.55;1.60;;;16.40;99.90;;;;;;5082080;28;20051;-67
2022/06/13 08:06:01;;;;;;;5.75;1.90;;;16.50;99.90;;;;;;5083157;28;20040;-67
2022/06/13 08:08:27;;;;;;;6.38;1.27;;;16.60;99.90;;;;;;5085395;28;20788;-66
2022/06/13 08:10:55;;;;;;;4.97;1.27;;;16.70;99.90;;;;;;5084413;28;20119;-67
2022/06/13 08:13:23;;;;;;;6.90;1.73;;;16.50;99.90;;;;;;5076123;28;20134;-66
2022/06/13 08:15:49;;;;;;;6.23;1.47;;;16.40;99.90;;;;;;5084575;28;20036;-66
2022/06/13 08:18:14;;;;;;;5.18;1.30;;;16.40;99.90;;;;;;5087422;28;20059;-66
2022/06/13 08:20:42;;;;;;;9.10;1.50;;;16.40;99.90;;;;;;5082164;28;20433;-66
2022/06/13 08:23:10;;;;;;;11.20;1.88;;;16.30;99.90;;;;;;5088184;28;20482;-67
2022/06/13 08:25:36;;;;;;;;;;;16.40;99.90;;;;;;5085600;28;20351;-67
2022/06/13 08:28:04;;;;;;;6.82;1.63;;;16.50;99.90;;;;;;5089397;28;19928;-67
2022/06/13 08:30:35;;;;;;;6.55;1.40;;;16.70;99.90;;;;;;5088213;28;20408;-67
2022/06/13 08:33:01;;;;;;;11.55;2.17;;;17.00;99.90;;;;;;5087668;28;20055;-66
2022/06/13 08:35:26;;;;;;;6.55;1.65;;;17.10;99.90;;;;;;5082714;28;20044;-68
2022/06/13 08:37:52;;;;;;;5.68;1.60;;;17.10;99.90;;;;;;5090683;28;20040;-66
2022/06/13 08:40:18;;;;;;;3.95;1.30;;;17.10;99.90;;;;;;5081868;28;20489;-67
2022/06/13 08:42:52;;;;;;;4.90;1.73;;;17.10;99.90;;;;;;5086182;28;20040;-66
2022/06/13 08:45:39;;;;;;;8.93;2.28;;;17.30;99.90;;;;;;5082110;28;20039;-67
2022/06/13 08:48:33;;;;;;;8.52;1.55;;;17.40;99.90;;;;;;5087270;28;20094;-67
2022/06/13 08:51:11;;;;;;;10.43;1.85;;;17.30;99.90;;;;;;5084374;28;20048;-65
2022/06/13 08:54:06;;;;;;;;;;;17.10;99.90;;;;;;5090463;28;20178;-67
2022/06/13 08:56:35;;;;;;;4.57;1.48;;;16.80;99.90;;;;;;5057545;28;19977;-65
2022/06/13 08:59:23;;;;;;;10.75;1.88;;;16.70;99.90;;;;;;5087233;28;20040;-66
2022/06/13 09:02:04;;;;;;;8.93;1.40;;;16.90;99.90;;;;;;5082743;28;20132;-68
2022/06/13 09:04:35;;;;;;;11.10;1.85;;;17.00;99.90;;;;;;5096047;28;20052;-65
2022/06/13 09:07:08;;;;;;;5.50;1.50;;;17.10;99.90;;;;;;5086500;28;20077;-66
2022/06/13 09:09:43;;;;;;;9.50;2.00;;;17.20;99.90;;;;;;5087101;28;20051;-67
2022/06/13 09:12:16;;;;;;;8.13;1.92;;;17.30;99.90;;;;;;5083712;28;20051;-65
2022/06/13 09:14:58;;;;;;;6.45;1.80;;;17.40;99.90;;;;;;5088056;28;20051;-67
2022/06/13 09:18:15;;;;;;;8.98;1.45;;;17.60;99.90;;;;;;5085471;28;20079;-68
2022/06/13 09:20:58;;;;;;;10.55;1.80;;;17.70;99.30;;;;;;5076406;28;20499;-66
2022/06/13 09:23:39;;;;;;;12.48;2.03;;;17.50;97.90;;;;;;5086967;28;20044;-67
2022/06/13 09:26:17;;;;;;;9.55;2.03;;;17.40;99.40;;;;;;5074777;28;20032;-65
2022/06/13 09:29:08;;;;;;;6.65;1.30;;;17.60;99.50;;;;;;5082245;28;20123;-66
2022/06/13 09:31:40;;;;;;;10.75;1.83;;;17.80;99.20;;;;;;5085431;28;20059;-68
2022/06/13 09:34:18;;;;;;;7.68;1.63;;;17.80;98.90;;;;;;5079764;28;20142;-67
2022/06/13 09:37:16;;;;;;;6.18;1.50;;;17.90;99.90;;;;;;5087327;28;20555;-65
2022/06/13 09:39:42;;;;;;;8.60;2.22;;;18.20;99.10;;;;;;5081337;28;20111;-66
2022/06/13 09:42:49;;;;;;;10.23;2.47;;;18.20;99.20;;;;;;5081592;28;20062;-66
2022/06/13 09:45:35;;;;;;;11.25;2.00;;;18.10;99.60;;;;;;5064584;28;20051;-67
2022/06/13 09:48:45;;;;;;;7.35;1.80;;;18.10;97.40;;;;;;5070886;28;20533;-65
2022/06/13 09:51:41;;;;;;;6.50;1.60;;;17.80;97.80;;;;;;5026850;28;20593;-66
2022/06/13 09:54:19;;;;;;;8.18;1.83;;;17.90;96.80;;;;;;5025977;28;20495;-65
2022/06/13 09:57:02;;;;;;;12.57;2.17;;;18.00;97.70;;;;;;5068666;28;20052;-66
2022/06/13 09:59:59;;;;;;;11.70;2.00;;;18.00;98.20;;;;;;5089997;28;20083;-66
2022/06/13 10:02:38;;;;;;;15.63;2.42;;;17.60;98.10;;;;;;5075081;28;20086;-66
2022/06/13 10:05:06;;;;;;;10.85;2.35;;;17.20;99.30;;;;;;5087068;28;20140;-65
2022/06/13 10:07:38;;;;;;;9.50;1.75;;;17.10;99.50;;;;;;5084450;28;20468;-67
2022/06/13 10:10:10;;;;;;;8.02;1.70;;;17.40;99.90;;;;;;5085959;28;20036;-68
2022/06/13 10:13:24;;;;;;;13.45;2.33;;;17.70;99.90;;;;;;5086079;28;20036;-66
2022/06/13 10:16:17;;;;;;;9.32;1.92;;;18.00;98.90;;;;;;5066292;28;20075;-68
2022/06/13 10:19:10;;;;;;;12.55;2.05;;;17.80;98.90;;;;;;5078683;28;20041;-66
2022/06/13 10:21:48;;;;;;;16.02;2.95;;;17.70;99.50;;;;;;5079443;28;20041;-66
2022/06/13 10:24:40;;;;;;;10.25;2.30;;;17.70;98.80;;;;;;5075199;28;20410;-66
2022/06/13 10:27:44;;;;;;;11.27;2.15;;;17.60;99.30;;;;;;5082986;28;20393;-66
2022/06/13 10:30:39;;;;;;;12.20;2.08;;;17.50;99.70;;;;;;5087214;28;20048;-67
2022/06/13 10:33:38;;;;;;;6.55;2.13;;;17.60;99.60;;;;;;5089738;28;20048;-66
2022/06/13 10:36:34;;;;;;;7.57;1.83;;;17.60;98.90;;;;;;5084663;28;20061;-68
2022/06/13 10:39:14;;;;;;;11.75;1.92;;;17.40;99.50;;;;;;5091118;28;20040;-66
2022/06/13 10:41:44;;;;;;;9.52;2.35;;;17.40;99.90;;;;;;5080381;28;20040;-67
2022/06/13 10:44:13;;;;;;;7.07;1.90;;;17.80;99.90;;;;;;5087840;28;20154;-66
2022/06/13 10:46:43;;;;;;;10.90;2.05;;;18.00;99.10;;;;;;5090316;28;20028;-66
2022/06/13 10:49:25;;;;;;;14.75;2.50;;;17.90;99.20;;;;;;5093231;28;20044;-66
2022/06/13 10:51:57;;;;;;;12.30;2.88;;;18.00;99.90;;;;;;5090234;28;20131;-66
2022/06/13 10:54:29;;;;;;;12.60;2.22;;;18.30;99.00;;;;;;5088564;28;20044;-66
2022/06/13 10:57:02;;;;;;;9.70;2.47;;;18.70;98.00;;;;;;5088615;28;20058;-67
2022/06/13 10:59:32;;;;;;;8.35;1.98;;;19.00;96.40;;;;;;5092738;28;20448;-67
2022/06/13 11:02:04;;;;;;;7.03;2.22;;;18.90;96.30;;;;;;5093982;28;20048;-66
2022/06/13 11:04:33;;;;;;;18.02;3.10;;;18.80;97.10;;;;;;5090094;28;20439;-68
2022/06/13 11:07:14;;;;;;;13.18;2.58;;;18.80;98.10;;;;;;5090469;28;20409;-67
2022/06/13 11:09:43;;;;;;;9.57;2.10;;;18.80;98.00;;;;;;5094328;28;20044;-66
2022/06/13 11:12:20;;;;;;;10.15;2.35;;;18.70;97.10;;;;;;5084771;28;20040;-67
2022/06/13 11:23:13;;;;;;;12.90;2.38;;;18.40;96.90;;;;;;5087352;28;20074;-66
2022/06/13 11:25:39;;;;;;;10.38;2.22;;;18.30;97.50;;;;;;5091320;28;20051;-66
2022/06/13 11:28:12;;;;;;;8.90;2.10;;;18.40;97.10;;;;;;5086539;28;20048;-66
2022/06/13 11:30:50;;;;;;;8.70;1.80;;;18.60;97.10;;;;;;5092838;28;20044;-67
2022/06/13 11:33:26;;;;;;;12.52;1.75;;;18.60;96.10;;;;;;5106304;28;20048;-66
2022/06/13 11:36:00;;;;;;;12.50;1.80;;;18.40;96.50;;;;;;5087573;28;20055;-66
2022/06/13 11:39:00;;;;;;;12.15;2.50;;;18.60;97.40;;;;;;5085515;28;20055;-66
2022/06/13 11:41:26;;;;;;;8.00;2.10;;;18.90;97.70;;;;;;5093455;28;20048;-65
2022/06/13 11:44:00;;;;;;;8.18;2.08;;;18.80;96.70;;;;;;5092915;28;20040;-65
2022/06/13 11:46:35;;;;;;;10.30;2.47;;;18.60;96.70;;;;;;5084050;28;20052;-66
2022/06/13 11:49:16;;;;;;;9.38;2.13;;;18.40;97.10;;;;;;5089311;28;20032;-66
2022/06/13 11:51:56;;;;;;;7.95;2.15;;;18.20;97.70;;;;;;5088005;28;20514;-66
2022/06/13 11:54:40;;;;;;;10.38;2.08;;;18.30;98.70;;;;;;5089739;28;20036;-67
2022/06/13 11:57:18;;;;;;;14.25;2.80;;;18.70;98.90;;;;;;5090700;28;20394;-66
2022/06/13 11:59:49;;;;;;;13.48;2.80;;;18.70;97.70;;;;;;5090307;28;20058;-67
2022/06/13 12:02:49;;;;;;;8.68;2.10;;;18.60;97.60;;;;;;5089869;28;20131;-67
2022/06/13 12:05:24;;;;;;;14.82;2.70;;;18.30;97.70;;;;;;5083448;28;20051;-67
2022/06/13 12:07:55;;;;;;;9.32;2.10;;;18.30;98.50;;;;;;5086550;28;20126;-66
2022/06/13 12:10:28;;;;;;;8.60;2.20;;;18.40;98.50;;;;;;5082676;28;20067;-66
2022/06/13 12:12:54;;;;;;;11.25;2.00;;;18.40;98.40;;;;;;5091142;28;20477;-66
2022/06/13 12:15:22;;;;;;;8.98;1.90;;;18.30;97.70;;;;;;5083132;28;20122;-66
2022/06/13 12:17:55;;;;;;;8.65;2.00;;;18.20;97.40;;;;;;5073094;28;20036;-68
2022/06/13 12:20:48;;;;;;;15.65;1.88;;;18.10;97.30;;;;;;5090026;28;20051;-66
2022/06/13 12:23:23;;;;;;;14.13;2.13;;;18.00;98.00;;;;;;5074453;28;20059;-67
2022/06/13 12:25:56;;;;;;;10.25;2.20;;;18.00;97.90;;;;;;5084913;28;20040;-66
2022/06/13 12:28:28;;;;;;;6.45;1.73;;;18.00;97.90;;;;;;5087933;28;20039;-68
2022/06/13 12:30:58;;;;;;;9.55;1.85;;;18.10;97.40;;;;;;5090124;28;20481;-67
2022/06/13 12:33:33;;;;;;;5.32;1.50;;;18.00;97.70;;;;;;5088624;28;20493;-67
2022/06/13 12:36:10;;;;;;;7.72;1.63;;;18.00;96.20;;;;;;5084732;28;20054;-66
2022/06/13 12:39:03;;;;;;;6.82;1.70;;;17.80;96.00;;;;;;5086452;28;20051;-67
2022/06/13 12:42:00;;;;;;;6.25;1.40;;;17.70;96.30;;;;;;5070742;28;20056;-66
2022/06/13 12:44:34;;;;;;;8.68;1.67;;;17.70;97.50;;;;;;5081831;28;20483;-65
2022/06/13 12:47:28;;;;;;;7.78;1.60;;;18.00;97.80;;;;;;5084091;28;20063;-67
2022/06/13 12:50:12;;;;;;;8.20;1.92;;;18.20;97.10;;;;;;5090589;28;20503;-66
2022/06/13 12:52:41;;;;;;;4.45;1.10;;;18.20;97.00;;;;;;5085154;28;20058;-67
2022/06/13 12:55:09;;;;;;;9.80;1.70;;;18.10;96.50;;;;;;5086250;28;20094;-67
2022/06/13 12:58:08;;;;;;;6.93;2.17;;;18.30;97.70;;;;;;5086426;28;20052;-67
2022/06/13 13:00:50;;;;;;;11.00;2.60;;;18.70;97.80;;;;;;5070236;28;20048;-67
2022/06/13 13:03:25;;;;;;;12.27;2.13;;;19.00;97.10;;;;;;5079040;28;20052;-65
2022/06/13 13:06:07;;;;;;;10.48;2.47;;;19.00;96.00;;;;;;5098309;28;20405;-67
2022/06/13 13:08:38;;;;;;;5.60;1.15;;;18.70;95.80;;;;;;5087776;28;20512;-65
2022/06/13 13:11:23;;;;;;;7.57;1.80;;;18.40;96.30;;;;;;5087039;28;20525;-65
2022/06/13 13:14:16;;;;;;;22.90;6.22;;;18.30;96.50;;;;;;5080823;28;20129;-65
2022/06/13 13:17:04;;;;;;;8.23;1.73;;;18.40;96.70;;;;;;5084100;28;20097;-67
2022/06/13 13:19:38;;;;;;;4.55;1.23;;;18.50;96.20;;;;;;5089522;28;20044;-65
2022/06/13 13:22:25;;;;;;;5.90;1.30;;;18.40;95.20;;;;;;5105400;28;20050;-66
2022/06/13 13:25:12;;;;;;;4.90;1.52;;;18.30;95.60;;;;;;5094102;28;20043;-65
2022/06/13 13:27:48;;;;;;;6.63;1.80;;;18.30;96.10;;;;;;5089509;28;20043;-65
2022/06/13 13:30:19;;;;;;;7.50;1.40;;;18.50;96.60;;;;;;5090554;28;20052;-66
2022/06/13 13:33:09;;;;;;;3.55;1.00;;;18.70;96.30;;;;;;5083986;28;20044;-67
2022/06/13 13:35:47;;;;;;;3.80;1.10;;;18.90;94.00;;;;;;5071586;28;20523;-66
2022/06/13 13:38:20;;;;;;;7.65;1.65;;;18.80;93.80;;;;;;5080363;28;20052;-67
2022/06/13 13:40:46;;;;;;;11.38;1.55;;;18.80;95.00;;;;;;5084219;28;20494;-65